Voyage: The Race NL – 2026

24Uurs—Stavoren-Medemblick

by Christian Möllerherm aboard SY Rubberduck · 29.08.2026, 19:52 · Cruising area IJsselmeer & Markermeer

107.5 sm
Distance
25 h 29 min
Duration
4.2 kn
Avg speed
7.6 kn
Max

Track © crew · map © OpenStreetMap

📖 Logbook (60 entries)
  • 2026-08-28T16:22:13Z 🏁 Passage Start — Log 597.6 sm · Engine 1623.1 h · Water Voll · Fuel Voll
  • 2026-08-28T16:22:13Z ⛵ Under engine
  • 2026-08-28T16:22:13Z 🌡 NMEA weather: Wind: WSW 10.9kn Temp: 23.4°C Pressure: 1008hPa Depth: 3.1m Water temp: 21.3°C
  • 2026-08-28T16:22:13Z 🌡 Luftdruck 1008 hPa → (Trip start)
  • 2026-08-28T16:22:13Z ↪ Time interval (30 min) 📍 Position: 52.8739° N, 5.3636° E Ø SOG: 0.0kn COG: 197° Tiefe: 3.1m Wind: WSW 10.9kn Wassertemp: 21.3°C
  • 2026-08-28T16:22:15Z 🌡 Online weather: Wind: SSW 10.5kn Temp: 17.1°C Pressure: 1006hPa Waves: 0.4m 🌤 Forecast (next 12h): 28.08 19:00 Rain Wind: SSW 16kn (Bft 4) Precipitation: 1.3mm Waves: 0.5m 28.08 22:00 Clear Wind: SSW 15kn (Bft 4) Waves: 0.8m 29.08 01:00 Heavy rain Wind: SW 14kn (Bft 4) Precipitation: 10.5mm Waves: 0.8m 29.08 04:00 Heavy rain Wind: WSW 16kn (Bft 4) Precipitation: 9.8mm Waves: 0.8m
  • 2026-08-28T16:22:29Z ⚓︎ Buoy „KITE 16“ abeam — 126 m
  • 2026-08-28T16:22:29Z ⚓︎ Buoy „KITE 18“ abeam — 0.3 sm
  • 2026-08-28T16:22:29Z ⚓︎ Buoy „KITE 17“ abeam — 360 m
  • 2026-08-28T16:24:44Z ⚓︎ Buoy „ST 17“ abeam — 0.2 sm
  • 2026-08-28T16:25:01Z ⚓︎ Beacon „Stavoren“ abeam — 0.2 sm
  • 2026-08-28T16:25:01Z ⚓︎ Beacon „Stavoren“ abeam — 308 m
  • 2026-08-28T16:25:01Z ⚓︎ Buoy „BANK ST“ abeam — 0.2 sm
  • 2026-08-28T16:25:01Z ⚓︎ Buoy „ST 19“ abeam — 306 m
  • 2026-08-28T16:42:09Z ⚓︎ Buoy „ST 15“ abeam starboard — 0.4 sm
  • 2026-08-28T16:42:22Z ↪ Course change >25° 📍 Position: 52.8736° N, 5.3627° E Ø SOG: 1.1kn dist: 0.04sm COG: 309° Tiefe: 2.9m Wind: W 12.5kn Wassertemp: 20.8°C
  • 2026-08-28T16:47:22Z ↪ Course change >25° 📍 Position: 52.8755° N, 5.3615° E Ø SOG: 3.2kn dist: 0.12sm COG: 351° Tiefe: 3.5m Wind: WSW 10.8kn Wassertemp: 19.7°C
  • 2026-08-28T16:52:13Z 🌡 Luftdruck 1008 hPa →
  • 2026-08-28T16:57:27Z ↪ Course change >25° 📍 Position: 52.8772° N, 5.3589° E Ø SOG: 3.8kn dist: 0.16sm COG: 39° Tiefe: 2.6m Wind: SSO 9.9kn Wassertemp: 20.8°C
  • 2026-08-28T17:02:29Z ↪ Course change >25° 📍 Position: 52.8773° N, 5.3589° E Ø SOG: 4.0kn dist: 0.01sm COG: 206° Tiefe: 2.3m Wind: N 10.9kn Wassertemp: 20.9°C
  • 2026-08-28T17:07:34Z ↪ Course change >25° 📍 Position: 52.8759° N, 5.3506° E Ø SOG: 4.9kn dist: 0.31sm COG: 258° Tiefe: 4.7m Wind: NW 10.0kn Wassertemp: 20.7°C
  • 2026-08-28T17:17:44Z ↪ After 1.0 nm 📍 Position: 52.8761° N, 5.3219° E Ø SOG: 5.5kn dist: 1.04sm COG: 268° Tiefe: 4.5m Wind: NW 11.1kn Wassertemp: 19.6°C
  • 2026-08-28T17:22:13Z 🌡 Luftdruck 1008 hPa →
  • 2026-08-28T17:22:49Z ↪ Course change >25° 📍 Position: 52.8764° N, 5.3073° E Ø SOG: 8.6kn dist: 0.53sm COG: 300° Tiefe: 5.3m Wind: WNW 10.6kn Wassertemp: 20.2°C
  • 2026-08-28T17:27:54Z ↪ Course change >25° 📍 Position: 52.8716° N, 5.3086° E Ø SOG: 6.7kn dist: 0.29sm COG: 139° Tiefe: 5.3m Wind: ONO 9.6kn Wassertemp: 19.5°C
  • 2026-08-28T17:38:04Z ↪ Course change >25° 📍 Position: 52.8575° N, 5.3211° E Ø SOG: 4.3kn dist: 0.96sm COG: 238° Tiefe: 4.3m Wind: WNW 9.0kn Wassertemp: 19.5°C
  • 2026-08-28T17:43:09Z ↪ Course change >25° 📍 Position: 52.8567° N, 5.3102° E Ø SOG: 3.0kn dist: 0.40sm COG: 264° Tiefe: 5.4m Wind: NW 7.7kn Wassertemp: 20.1°C
  • 2026-08-28T17:43:19Z ⚓︎ Buoy „LC 2“ abeam port — 154 m
  • 2026-08-28T17:46:34Z ⚓︎ Buoy „LC 1“ abeam port — 103 m
  • 2026-08-28T17:48:09Z ↪ Course change >25° 📍 Position: 52.8574° N, 5.3001° E Ø SOG: 7.5kn dist: 0.37sm COG: 301° Tiefe: 5.2m Wind: WNW 11.7kn Wassertemp: 19.5°C
  • 2026-08-28T17:52:13Z 🌡 Luftdruck 1008 hPa →
  • 2026-08-28T17:58:19Z ↪ After 1.0 nm 📍 Position: 52.8632° N, 5.2686° E Ø SOG: 7.7kn dist: 1.19sm COG: 296° Tiefe: 3.4m Wind: W 9.4kn Wassertemp: 20.1°C
  • 2026-08-28T18:08:29Z ↪ After 1.0 nm 📍 Position: 52.8698° N, 5.2356° E Ø SOG: 7.2kn dist: 1.26sm COG: 282° Tiefe: 5.3m Wind: WNW 11.3kn Wassertemp: 20.1°C
  • 2026-08-28T18:18:39Z ↪ After 1.0 nm 📍 Position: 52.8751° N, 5.2016° E Ø SOG: 7.5kn dist: 1.27sm COG: 266° Tiefe: 5.0m Wind: WNW 10.3kn Wassertemp: 19.5°C
  • 2026-08-28T18:22:14Z 🌡 Luftdruck 1008 hPa →
  • 2026-08-28T18:22:14Z 🌡 NMEA weather: Wind: WNW 10.0kn Temp: 17.1°C Pressure: 1008hPa Depth: 4.5m Water temp: 20.2°C
  • 2026-08-28T18:22:20Z 🌡 Online weather: Wind: SSW 17.1kn Temp: 17.9°C Pressure: 1006hPa Waves: 0.5m 🌤 Forecast (next 12h): 28.08 21:00 Clear Wind: SSW 19kn (Bft 5) Waves: 0.6m 29.08 00:00 Overcast Wind: SSW 18kn (Bft 5) Waves: 0.7m 29.08 03:00 Rain Wind: SW 18kn (Bft 5) Precipitation: 2.0mm Waves: 0.6m 29.08 06:00 Overcast Wind: SW 16kn (Bft 4) Waves: 0.5m
  • 2026-08-28T18:28:44Z ↪ After 1.0 nm 📍 Position: 52.8811° N, 5.1690° E Ø SOG: 7.0kn dist: 1.23sm COG: 288° Tiefe: 4.7m Wind: WNW 9.0kn Wassertemp: 19.5°C
  • 2026-08-28T18:38:54Z ↪ After 1.0 nm 📍 Position: 52.8888° N, 5.1366° E Ø SOG: 6.3kn dist: 1.26sm COG: 264° Tiefe: 3.5m Wind: NW 10.9kn Wassertemp: 19.5°C
  • 2026-08-28T18:41:39Z ⚓︎ Buoy „WV 16“ abeam port — 0.4 sm
  • 2026-08-28T18:43:59Z ↪ Course change >25° 📍 Position: 52.8925° N, 5.1208° E Ø SOG: 7.6kn dist: 0.61sm COG: 306° Tiefe: 2.9m Wind: W 8.2kn Wassertemp: 19.6°C
  • 2026-08-28T18:44:54Z ⚓︎ Buoy „WV 14“ abeam port — 0.2 sm
  • 2026-08-28T18:45:34Z ⚓︎ Buoy „WV 13“ abeam port — 0.3 sm
  • 2026-08-28T18:48:34Z ⚓︎ Buoy „WV 12“ abeam port — 23 m
  • 2026-08-28T18:49:04Z ↪ Course change >25° 📍 Position: 52.8953° N, 5.1070° E Ø SOG: 4.0kn dist: 0.53sm COG: 145° Tiefe: 6.0m Wind: ONO 8.1kn Wassertemp: 19.7°C
  • 2026-08-28T18:49:34Z ⚓︎ Buoy „WV 11“ abeam starboard — 87 m
  • 2026-08-28T18:52:14Z 🌡 Luftdruck 1008 hPa →
  • 2026-08-28T18:54:09Z ↪ Course change >25° 📍 Position: 52.8904° N, 5.1218° E Ø SOG: 7.2kn dist: 0.61sm COG: 114° Tiefe: 3.8m Wind: O 9.4kn Wassertemp: 20.3°C
  • 2026-08-28T19:04:19Z ↪ After 1.0 nm 📍 Position: 52.8847° N, 5.1545° E Ø SOG: 7.8kn dist: 1.23sm COG: 108° Tiefe: 4.2m Wind: O 9.7kn Wassertemp: 19.6°C
  • 2026-08-28T19:14:29Z ↪ After 1.0 nm 📍 Position: 52.8797° N, 5.1894° E Ø SOG: 8.1kn dist: 1.30sm COG: 92° Tiefe: 4.7m Wind: OSO 10.3kn Wassertemp: 19.5°C
  • 2026-08-28T19:22:14Z 🌡 Luftdruck 1008 hPa →
  • 2026-08-28T19:24:39Z ↪ After 1.0 nm 📍 Position: 52.8753° N, 5.2261° E Ø SOG: 8.2kn dist: 1.36sm COG: 98° Tiefe: 6.0m Wind: OSO 11.6kn Wassertemp: 19.4°C
  • 2026-08-28T19:34:49Z ↪ After 1.0 nm 📍 Position: 52.8690° N, 5.2623° E Ø SOG: 8.2kn dist: 1.36sm COG: 121° Tiefe: 3.8m Wind: ONO 13.0kn Wassertemp: 19.4°C
  • 2026-08-28T19:44:54Z ↪ After 1.0 nm 📍 Position: 52.8623° N, 5.2950° E Ø SOG: 7.3kn dist: 1.25sm COG: 91° Tiefe: 4.1m Wind: OSO 10.4kn Wassertemp: 20.0°C
  • 2026-08-28T19:49:59Z ↪ Course change >25° 📍 Position: 52.8584° N, 5.3038° E Ø SOG: 6.5kn dist: 0.39sm COG: 292° Tiefe: 5.1m Wind: WNW 11.1kn Wassertemp: 20.0°C
  • 2026-08-28T19:52:14Z 🌡 Luftdruck 1008 hPa →
  • 2026-08-28T19:55:04Z ↪ Course change >25° 📍 Position: 52.8655° N, 5.2916° E Ø SOG: 7.3kn dist: 0.61sm COG: 344° Tiefe: 3.0m Wind: SW 12.5kn Wassertemp: 20.0°C
  • 2026-08-28T20:00:09Z ↪ Course change >25° 📍 Position: 52.8754° N, 5.2872° E Ø SOG: 6.2kn dist: 0.62sm COG: 12° Tiefe: 3.7m Wind: SSW 6.7kn Wassertemp: 19.4°C
  • 2026-08-28T20:05:14Z ↪ Course change >25° 📍 Position: 52.8840° N, 5.2860° E Ø SOG: 7.0kn dist: 0.52sm COG: 62° Tiefe: 3.8m Wind: SO 9.0kn Wassertemp: 19.4°C
  • 2026-08-28T20:15:19Z ↪ After 1.0 nm 📍 Position: 52.8928° N, 5.3153° E Ø SOG: 7.9kn dist: 1.18sm COG: 61° Tiefe: 5.3m Wind: SSO 13.2kn Wassertemp: 19.4°C
The Start
Co-Skipper
Crew
Recorded with Rubberduck — the logbook app

Leave a comment